ΕΜΥ, Εθνική Μετεωρολογική Υπηρεσία - Δελτία Καιρού, Προγνώσεις

ΑΕΡΟΝΑΥΤΙΛΙΑ

GREEK AIRPORTS CODES

LGAT 141530Z AUTO VRB01KT //// // ////// 17/14 Q1011 RE//=

EUROPEAN AIRPORTS CODES

LFPO 141530Z 12006KT 080V170 9999 FEW019 BKN023 BKN190 06/03Q0998 NOSIG=